< < Back
Terminal Aerodrome Forecast


Current Version              Previous Versions:   1  2  3  4  5  6  7  8  9  

Terminal Aerodrome Forecast

060
FTUS42 KCAE 251120
TAFCAE
TAF
KCAE 251120Z 2512/2612 VRB03KT P6SM SKC
      TEMPO 2512/2513 4SM BR SCT008
     FM251800 08005KT P6SM SCT040
     FM260900 VRB03KT 2SM BR BKN006=

Latest METAR

384
SAUS80 KWBC 251700 CCA
MTRCAE
METAR KCAE 251656Z 07006KT 10SM FEW050 FEW150 31/18 A3009 RMK AO2 SLP187
T03110183


USA.gov is the U.S. government's official web portal to all federal, state and local government web resources and services.